createdAt,value
2022-12-08T00:02:08.949Z,100089.59
2022-12-08T00:04:55.313Z,100086.25
2022-12-08T00:07:40.065Z,100084.66
2022-12-08T00:10:19.160Z,100081.38
2022-12-08T00:12:53.442Z,100074.53
2022-12-08T00:15:19.754Z,100074.00
2022-12-08T00:17:46.017Z,100077.56
2022-12-08T00:20:12.369Z,100073.88
2022-12-08T00:22:38.705Z,100067.88
2022-12-08T00:25:05.881Z,100066.25
2022-12-08T00:27:32.310Z,100068.09
2022-12-08T00:29:58.612Z,100070.25
2022-12-08T00:32:24.925Z,100063.97
2022-12-08T00:34:51.221Z,100058.72
2022-12-08T00:37:17.502Z,100059.63
2022-12-08T00:39:43.796Z,100054.38
2022-12-08T00:42:13.140Z,100049.97
2022-12-08T00:44:44.726Z,100053.81
2022-12-08T00:47:12.680Z,100059.88
2022-12-08T00:49:39.045Z,100056.31
2022-12-08T00:52:05.730Z,100045.78
2022-12-08T00:54:32.225Z,100041.56
2022-12-08T00:56:58.549Z,100044.28
2022-12-08T00:59:24.955Z,100040.94
2022-12-08T01:01:51.268Z,100036.53
2022-12-08T01:04:19.539Z,100036.38
2022-12-08T01:06:46.401Z,100047.78
2022-12-08T01:09:14.741Z,100045.22
2022-12-08T01:11:41.553Z,100047.69
2022-12-08T01:14:07.985Z,100038.94
2022-12-08T01:16:36.000Z,100041.72
2022-12-08T01:19:02.929Z,100050.03
2022-12-08T01:21:29.645Z,100044.59
2022-12-08T01:23:57.883Z,100041.78
2022-12-08T01:26:24.210Z,100037.31
2022-12-08T01:28:50.642Z,100037.38
2022-12-08T01:31:19.555Z,100034.72
2022-12-08T01:33:46.683Z,100030.31
2022-12-08T01:36:19.260Z,100031.97
2022-12-08T01:38:45.649Z,100030.25
2022-12-08T01:41:22.014Z,100031.97
2022-12-08T01:44:08.227Z,100025.91
2022-12-08T01:46:37.344Z,100022.50
2022-12-08T01:49:10.806Z,100020.66
2022-12-08T01:51:44.571Z,100011.78
2022-12-08T01:54:12.495Z,100014.22
2022-12-08T01:57:04.877Z,100024.41
2022-12-08T01:59:36.164Z,100021.91
2022-12-08T02:02:02.510Z,100015.88
2022-12-08T02:04:28.830Z,100014.81
2022-12-08T02:06:55.464Z,100010.25
2022-12-08T02:09:22.116Z,100007.63
2022-12-08T02:11:50.293Z,99993.72
2022-12-08T02:14:16.731Z,99993.00
2022-12-08T02:16:56.221Z,99994.81
2022-12-08T02:19:40.822Z,99996.78
2022-12-08T02:22:12.363Z,99993.63
2022-12-08T02:24:46.175Z,99995.78
2022-12-08T02:27:40.826Z,100003.25
2022-12-08T02:30:18.997Z,100001.28
2022-12-08T02:33:06.588Z,100001.84
2022-12-08T02:35:43.155Z,99987.00
2022-12-08T02:38:37.077Z,99986.88
2022-12-08T02:41:23.346Z,99986.06
2022-12-08T02:44:18.192Z,99981.91
2022-12-08T02:46:52.526Z,99981.28
2022-12-08T02:49:18.801Z,99979.94
2022-12-08T02:51:45.140Z,99986.19
2022-12-08T02:54:12.969Z,99980.25
2022-12-08T02:57:11.756Z,99962.03
2022-12-08T03:00:19.529Z,99970.81
2022-12-08T03:03:00.695Z,99975.22
2022-12-08T03:05:32.941Z,99972.66
2022-12-08T03:08:19.993Z,99958.72
2022-12-08T03:10:46.259Z,99956.28
2022-12-08T03:13:32.288Z,99951.97
2022-12-08T03:16:00.154Z,99960.09
2022-12-08T03:18:31.796Z,99949.53
2022-12-08T03:20:59.236Z,99951.31
2022-12-08T03:23:26.516Z,99950.50
2022-12-08T03:26:08.449Z,99948.66
2022-12-08T03:28:34.938Z,99954.56
2022-12-08T03:31:05.711Z,99943.06
2022-12-08T03:33:37.385Z,99948.53
2022-12-08T03:36:07.032Z,99938.03
2022-12-08T03:38:45.593Z,99938.03
2022-12-08T03:41:18.247Z,99936.13
2022-12-08T03:44:04.958Z,99930.78
2022-12-08T03:48:57.187Z,99923.38
2022-12-08T03:51:24.294Z,99916.19
2022-12-08T03:53:50.813Z,99918.84
2022-12-08T03:56:26.244Z,99916.13
2022-12-08T03:58:53.670Z,99903.13
2022-12-08T04:01:20.425Z,99921.09
2022-12-08T04:03:46.947Z,99916.19
2022-12-08T04:06:13.371Z,99913.00
2022-12-08T04:08:40.021Z,99912.59
2022-12-08T04:11:06.596Z,99905.81
2022-12-08T04:13:34.941Z,99907.09
2022-12-08T04:16:01.468Z,99909.06
2022-12-08T04:18:27.857Z,99902.22
2022-12-08T04:20:56.328Z,99900.56
2022-12-08T04:23:22.901Z,99907.81
2022-12-08T04:25:50.740Z,99900.84
2022-12-08T04:28:17.342Z,99900.09
2022-12-08T04:30:43.942Z,99906.44
2022-12-08T04:33:10.650Z,99897.66
2022-12-08T04:35:36.933Z,99898.53
2022-12-08T04:38:03.290Z,99897.66
2022-12-08T04:40:29.566Z,99889.63
2022-12-08T04:42:55.891Z,99868.41
2022-12-08T04:45:22.256Z,99871.94
2022-12-08T04:47:48.649Z,99883.81
2022-12-08T04:50:14.999Z,99891.53
2022-12-08T04:52:41.334Z,99887.97
2022-12-08T04:55:08.008Z,99895.75
2022-12-08T04:57:34.547Z,99892.38
2022-12-08T05:00:00.965Z,99882.84
2022-12-08T05:02:27.382Z,99893.53
2022-12-08T05:04:53.697Z,99886.75
2022-12-08T05:07:20.034Z,99882.41
2022-12-08T05:09:46.326Z,99881.84
2022-12-08T05:12:12.661Z,99880.13
2022-12-08T05:14:38.962Z,99876.06
2022-12-08T05:17:09.527Z,99880.41
2022-12-08T05:19:36.340Z,99871.66
2022-12-08T05:22:02.697Z,99873.38
2022-12-08T05:24:28.991Z,99865.56
2022-12-08T05:26:55.278Z,99869.88
2022-12-08T05:29:21.601Z,99877.00
2022-12-08T05:31:47.895Z,99869.16
2022-12-08T05:34:14.377Z,99865.56
2022-12-08T05:36:40.689Z,99861.16
2022-12-08T05:39:07.009Z,99864.81
2022-12-08T05:41:33.312Z,99873.44
2022-12-08T05:43:59.598Z,99869.06
2022-12-08T05:46:28.308Z,99867.31
2022-12-08T05:48:54.670Z,99864.72
2022-12-08T05:51:24.002Z,99863.78
2022-12-08T05:53:51.860Z,99863.78
2022-12-08T05:56:19.118Z,99862.16
2022-12-08T05:58:45.953Z,99847.56
2022-12-08T06:01:39.095Z,99856.41
2022-12-08T06:04:05.513Z,99858.25
2022-12-08T06:06:34.271Z,99847.53
2022-12-08T06:09:02.925Z,99857.31
2022-12-08T06:11:30.916Z,99858.09
2022-12-08T06:13:57.698Z,99858.03
2022-12-08T06:16:26.147Z,99858.03
2022-12-08T06:18:53.077Z,99861.59
2022-12-08T06:21:19.689Z,99856.38
2022-12-08T06:23:53.689Z,99857.19
2022-12-08T06:26:20.855Z,99858.94
2022-12-08T06:28:47.776Z,99858.81
2022-12-08T06:31:17.291Z,99862.25
2022-12-08T06:33:43.960Z,99867.72
2022-12-08T06:36:13.117Z,99863.25
2022-12-08T06:38:43.302Z,99857.94
2022-12-08T06:41:11.297Z,99862.38
2022-12-08T06:43:37.765Z,99869.50
2022-12-08T06:46:07.151Z,99857.31
2022-12-08T06:48:33.459Z,99863.84
2022-12-08T06:51:07.795Z,99868.09
2022-12-08T06:53:34.083Z,99862.28
2022-12-08T06:56:00.517Z,99867.50
2022-12-08T06:58:26.957Z,99870.53
2022-12-08T07:00:53.671Z,99865.19
2022-12-08T07:03:20.505Z,99867.72
2022-12-08T07:05:46.810Z,99864.25
2022-12-08T07:08:13.172Z,99867.72
2022-12-08T07:10:41.881Z,99865.88
2022-12-08T07:13:08.170Z,99853.59
2022-12-08T07:15:34.527Z,99861.75
2022-12-08T07:18:00.978Z,99857.19
2022-12-08T07:20:27.537Z,99856.31
2022-12-08T07:22:54.319Z,99852.75
2022-12-08T07:25:20.636Z,99853.75
2022-12-08T07:27:47.498Z,99841.81
2022-12-08T07:30:14.925Z,99855.84
2022-12-08T07:32:41.230Z,99846.16
2022-12-08T07:35:08.213Z,99850.66
2022-12-08T07:37:35.699Z,99848.94
2022-12-08T07:40:02.469Z,99850.72
2022-12-08T07:42:29.118Z,99850.06
2022-12-08T07:44:55.538Z,99852.94
2022-12-08T07:47:21.829Z,99858.56
2022-12-08T07:49:48.246Z,99850.72
2022-12-08T07:52:14.554Z,99853.72
2022-12-08T07:54:40.896Z,99853.69
2022-12-08T07:57:08.937Z,99854.63
2022-12-08T07:59:35.603Z,99853.88
2022-12-08T08:02:23.046Z,99846.13
2022-12-08T08:04:51.541Z,99855.84
2022-12-08T08:07:17.903Z,99853.56
2022-12-08T08:09:45.552Z,99842.16
2022-12-08T08:12:30.360Z,99852.13
2022-12-08T08:14:58.261Z,99844.41
2022-12-08T08:17:24.742Z,99860.41
2022-12-08T08:19:52.270Z,99856.28
2022-12-08T08:22:18.761Z,99858.16
2022-12-08T08:24:45.451Z,99859.34
2022-12-08T08:27:12.516Z,99861.34
2022-12-08T08:29:38.837Z,99853.53
2022-12-08T08:32:05.729Z,99857.34
2022-12-08T08:34:32.017Z,99849.66
2022-12-08T08:36:58.377Z,99855.66
2022-12-08T08:39:24.839Z,99843.38
2022-12-08T08:41:51.217Z,99851.53
2022-12-08T08:44:17.526Z,99865.91
2022-12-08T08:46:44.455Z,99860.03
2022-12-08T08:49:10.840Z,99862.91
2022-12-08T08:51:37.231Z,99862.34
2022-12-08T08:54:03.897Z,99859.81
2022-12-08T08:56:30.522Z,99854.75
2022-12-08T08:58:56.969Z,99852.97
2022-12-08T09:01:27.345Z,99853.09
2022-12-08T09:03:54.762Z,99852.22
2022-12-08T09:06:21.377Z,99853.19
2022-12-08T09:08:48.541Z,99848.81
2022-12-08T09:11:14.977Z,99842.56
2022-12-08T09:13:41.369Z,99852.38
2022-12-08T09:16:09.133Z,99851.53
2022-12-08T09:18:35.572Z,99850.00
2022-12-08T09:21:14.888Z,99847.16
2022-12-08T09:23:43.668Z,99849.88
2022-12-08T09:26:09.987Z,99844.09
2022-12-08T09:28:36.641Z,99849.56
2022-12-08T09:31:03.029Z,99846.28
2022-12-08T09:33:29.532Z,99844.75
2022-12-08T09:35:56.127Z,99849.13
2022-12-08T09:38:22.469Z,99838.84
2022-12-08T09:40:51.630Z,99832.16
2022-12-08T09:43:27.094Z,99850.53
2022-12-08T09:45:55.079Z,99843.50
2022-12-08T09:48:32.958Z,99837.44
2022-12-08T09:50:59.307Z,99841.88
2022-12-08T09:53:50.588Z,99828.25
2022-12-08T09:56:22.616Z,99836.38
2022-12-08T09:59:00.116Z,99835.38
2022-12-08T10:01:29.575Z,99826.56
2022-12-08T10:03:56.181Z,99819.53
2022-12-08T10:06:47.789Z,99825.88
2022-12-08T10:09:41.632Z,99816.72
2022-12-08T10:12:10.874Z,99820.41
2022-12-08T10:14:47.489Z,99813.47
2022-12-08T10:17:17.776Z,99809.44
2022-12-08T10:19:45.534Z,99794.06
2022-12-08T10:22:26.830Z,99807.56
2022-12-08T10:25:15.450Z,99811.06
2022-12-08T10:27:41.763Z,99801.56
2022-12-08T10:30:16.862Z,99791.06
2022-12-08T10:32:47.687Z,99796.75
2022-12-08T10:35:16.621Z,99795.84
2022-12-08T10:37:59.381Z,99794.97
2022-12-08T10:40:39.107Z,99796.75
2022-12-08T10:43:15.551Z,99794.22
2022-12-08T10:45:42.824Z,99796.03
2022-12-08T10:48:11.919Z,99795.25
2022-12-08T10:50:55.382Z,99785.53
2022-12-08T10:53:27.358Z,99779.63
2022-12-08T10:56:07.320Z,99773.50
2022-12-08T10:58:35.556Z,99773.66
2022-12-08T11:01:18.664Z,99775.50
2022-12-08T11:03:45.056Z,99776.19
2022-12-08T11:06:42.236Z,99772.44
2022-12-08T11:09:17.632Z,99763.63
2022-12-08T11:11:51.382Z,99767.16
2022-12-08T11:14:32.214Z,99769.66
2022-12-08T11:17:14.958Z,99761.75
2022-12-08T11:19:44.571Z,99755.78
2022-12-08T11:22:29.474Z,99756.88
2022-12-08T11:25:12.036Z,99753.66
2022-12-08T11:27:58.913Z,99751.00
2022-12-08T11:30:30.297Z,99748.44
2022-12-08T11:33:03.685Z,99745.06
2022-12-08T11:35:35.191Z,99738.09
2022-12-08T11:38:21.287Z,99731.28
2022-12-08T11:40:52.167Z,99741.09
2022-12-08T11:43:30.632Z,99722.59
2022-12-08T11:46:01.712Z,99730.53
2022-12-08T11:48:40.808Z,99737.59
2022-12-08T11:51:15.183Z,99726.19
2022-12-08T11:54:00.708Z,99727.25
2022-12-08T11:56:34.616Z,99733.59
2022-12-08T11:59:08.530Z,99726.56
2022-12-08T12:01:40.913Z,99722.94
2022-12-08T12:04:31.249Z,99718.16
2022-12-08T12:07:26.530Z,99723.84
2022-12-08T12:10:18.006Z,99720.75
2022-12-08T12:13:05.381Z,99714.34
2022-12-08T12:15:51.319Z,99715.88
2022-12-08T12:18:29.880Z,99713.28
2022-12-08T12:21:11.179Z,99701.00
2022-12-08T12:23:45.781Z,99702.16
2022-12-08T12:26:21.727Z,99705.00
2022-12-08T12:29:09.681Z,99705.16
2022-12-08T12:31:47.165Z,99685.31
2022-12-08T12:34:32.779Z,99699.53
2022-12-08T12:37:07.253Z,99706.69
2022-12-08T12:39:46.833Z,99696.38
2022-12-08T12:42:39.523Z,99685.19
2022-12-08T12:45:17.931Z,99700.03
2022-12-08T12:48:19.905Z,99696.56
2022-12-08T12:50:48.501Z,99694.84
2022-12-08T12:53:17.964Z,99686.19
2022-12-08T12:55:58.735Z,99682.00
2022-12-08T12:58:27.900Z,99679.47
2022-12-08T13:01:20.088Z,99677.78
2022-12-08T13:03:49.772Z,99659.47
2022-12-08T13:06:24.319Z,99660.63
2022-12-08T13:08:53.878Z,99654.69
2022-12-08T13:11:21.529Z,99668.69
2022-12-08T13:13:57.971Z,99665.91
2022-12-08T13:16:27.170Z,99659.59
2022-12-08T13:18:59.419Z,99660.19
2022-12-08T13:21:33.980Z,99666.50
2022-12-08T13:24:29.609Z,99664.22
2022-12-08T13:27:04.790Z,99667.53
2022-12-08T13:29:32.869Z,99658.44
2022-12-08T13:32:09.601Z,99649.88
2022-12-08T13:34:42.153Z,99649.25
2022-12-08T13:37:11.499Z,99650.22
2022-12-08T13:39:40.855Z,99642.25
2022-12-08T13:42:35.740Z,99646.78
2022-12-08T13:49:03.320Z,99638.91
2022-12-08T13:53:34.168Z,99642.00
2022-12-08T13:57:27.146Z,99642.09
2022-12-08T13:59:53.471Z,99648.78
2022-12-08T14:02:43.796Z,99652.97
2022-12-08T14:05:18.993Z,99645.72
2022-12-08T14:07:48.650Z,99648.13
2022-12-08T14:10:19.934Z,99647.09
2022-12-08T14:12:52.138Z,99660.38
2022-12-08T14:15:19.674Z,99649.69
2022-12-08T14:17:57.094Z,99646.16
2022-12-08T14:20:51.735Z,99645.97
2022-12-08T14:23:18.565Z,99651.16
2022-12-08T14:25:47.995Z,99651.09
2022-12-08T14:28:14.403Z,99646.53
2022-12-08T14:30:40.817Z,99656.09
2022-12-08T14:33:14.371Z,99655.13
2022-12-08T14:35:40.795Z,99649.50
2022-12-08T14:38:16.235Z,99658.13
2022-12-08T14:40:45.090Z,99657.09
2022-12-08T14:43:14.282Z,99654.44
2022-12-08T14:45:40.547Z,99652.59
2022-12-08T14:48:27.173Z,99655.06
2022-12-08T14:51:11.856Z,99653.09
2022-12-08T14:53:46.238Z,99638.78
2022-12-08T14:56:15.552Z,99653.59
2022-12-08T14:58:42.002Z,99654.94
2022-12-08T15:01:13.350Z,99652.94
2022-12-08T15:03:40.237Z,99659.13
2022-12-08T15:06:08.235Z,99654.25
2022-12-08T15:08:49.942Z,99664.66
2022-12-08T15:11:22.032Z,99668.13
2022-12-08T15:13:50.541Z,99668.81
2022-12-08T15:16:46.073Z,99667.72
2022-12-08T15:19:39.021Z,99662.16
2022-12-08T15:22:21.161Z,99666.31
2022-12-08T15:24:47.525Z,99664.50
2022-12-08T15:27:18.916Z,99669.59
2022-12-08T15:29:47.224Z,99663.44
2022-12-08T15:32:18.593Z,99670.50
2022-12-08T15:34:45.129Z,99673.91
2022-12-08T15:37:26.379Z,99673.97
2022-12-08T15:39:53.163Z,99675.81
2022-12-08T15:42:19.438Z,99663.63
2022-12-08T15:44:45.808Z,99679.53
2022-12-08T15:47:23.525Z,99676.00
2022-12-08T15:49:52.434Z,99679.53
2022-12-08T15:52:23.223Z,99679.34
2022-12-08T15:54:50.154Z,99671.31
2022-12-08T15:58:04.112Z,99673.81
2022-12-08T16:04:13.895Z,99674.19
2022-12-08T16:09:12.213Z,99672.81
2022-12-08T16:12:08.531Z,99670.03
2022-12-08T16:17:23.294Z,99666.63
2022-12-08T16:19:49.625Z,99667.34
2022-12-08T16:25:22.297Z,99674.94
2022-12-08T16:28:03.172Z,99677.31
2022-12-08T16:30:35.108Z,99663.16
2022-12-08T16:33:01.709Z,99669.06
2022-12-08T16:35:28.228Z,99669.09
2022-12-08T16:37:54.588Z,99671.63
2022-12-08T16:40:21.040Z,99671.50
2022-12-08T16:42:49.666Z,99669.63
2022-12-08T16:45:21.505Z,99673.44
2022-12-08T16:47:59.146Z,99673.75
2022-12-08T16:50:28.996Z,99671.91
2022-12-08T16:53:03.817Z,99660.41
2022-12-08T16:55:30.648Z,99661.28
2022-12-08T16:57:57.045Z,99655.84
2022-12-08T17:00:26.097Z,99667.16
2022-12-08T17:02:53.650Z,99653.25
2022-12-08T17:05:22.138Z,99668.97
2022-12-08T17:07:50.547Z,99669.16
2022-12-08T17:10:20.782Z,99660.22
2022-12-08T17:12:47.219Z,99666.34
2022-12-08T17:15:16.697Z,99660.09
2022-12-08T17:17:43.142Z,99652.06
2022-12-08T17:20:13.473Z,99653.13
2022-12-08T17:22:39.768Z,99662.06
2022-12-08T17:25:06.760Z,99654.03
2022-12-08T17:27:33.408Z,99660.22
2022-12-08T17:29:59.842Z,99661.78
2022-12-08T17:32:26.853Z,99651.97
2022-12-08T17:34:53.480Z,99649.44
2022-12-08T17:37:20.027Z,99649.28
2022-12-08T17:39:46.399Z,99649.19
2022-12-08T17:42:12.699Z,99644.78
2022-12-08T17:44:39.049Z,99646.75
2022-12-08T17:47:06.748Z,99645.78
2022-12-08T17:49:33.935Z,99629.00
2022-12-08T17:52:03.241Z,99633.31
2022-12-08T17:54:30.341Z,99639.38
2022-12-08T17:56:59.746Z,99638.59
2022-12-08T17:59:28.214Z,99643.78
2022-12-08T18:01:56.426Z,99638.38
2022-12-08T18:04:24.425Z,99637.47
2022-12-08T18:06:50.759Z,99638.22
2022-12-08T18:09:17.714Z,99645.38
2022-12-08T18:11:45.996Z,99657.56
2022-12-08T18:14:14.095Z,99637.28
2022-12-08T18:16:43.073Z,99651.50
2022-12-08T18:19:10.541Z,99655.69
2022-12-08T18:21:37.619Z,99658.28
2022-12-08T18:24:04.766Z,99646.16
2022-12-08T18:26:31.430Z,99644.34
2022-12-08T18:28:57.951Z,99645.16
2022-12-08T18:31:24.861Z,99642.53
2022-12-08T18:33:51.933Z,99641.78
2022-12-08T18:36:22.484Z,99655.75
2022-12-08T18:38:49.458Z,99648.78
2022-12-08T18:41:25.941Z,99646.22
2022-12-08T18:43:56.912Z,99642.66
2022-12-08T18:46:24.470Z,99637.44
2022-12-08T18:48:51.985Z,99640.66
2022-12-08T18:51:20.960Z,99647.06
2022-12-08T18:53:47.576Z,99647.72
2022-12-08T18:56:21.254Z,99648.41
2022-12-08T18:58:47.583Z,99654.63
2022-12-08T19:01:14.744Z,99651.81
2022-12-08T19:03:45.651Z,99657.81
2022-12-08T19:06:24.837Z,99658.84
2022-12-08T19:08:51.204Z,99655.13
2022-12-08T19:11:19.607Z,99657.81
2022-12-08T19:13:46.447Z,99659.44
2022-12-08T19:16:13.492Z,99659.28
2022-12-08T19:18:40.404Z,99664.44
2022-12-08T19:21:07.672Z,99667.88
2022-12-08T19:23:34.387Z,99666.06
2022-12-08T19:26:01.770Z,99673.84
2022-12-08T19:28:28.590Z,99661.66
2022-12-08T19:30:54.894Z,99677.31
2022-12-08T19:33:21.390Z,99666.72
2022-12-08T19:35:52.422Z,99668.53
2022-12-08T19:38:19.282Z,99669.38
2022-12-08T19:41:04.041Z,99669.66
2022-12-08T19:43:52.923Z,99663.50
2022-12-08T19:46:19.612Z,99665.00
2022-12-08T19:48:46.149Z,99655.31
2022-12-08T19:51:12.501Z,99654.66
2022-12-08T19:53:41.840Z,99653.66
2022-12-08T19:56:12.350Z,99652.72
2022-12-08T19:58:38.668Z,99647.25
2022-12-08T20:01:05.127Z,99650.03
2022-12-08T20:03:31.510Z,99656.31
2022-12-08T20:05:57.929Z,99650.03
2022-12-08T20:08:24.339Z,99643.63
2022-12-08T20:10:51.066Z,99645.13
2022-12-08T20:13:35.738Z,99650.41
2022-12-08T20:16:02.080Z,99652.06
2022-12-08T20:18:28.698Z,99644.03
2022-12-08T20:20:55.108Z,99647.44
2022-12-08T20:23:21.404Z,99646.50
2022-12-08T20:25:48.171Z,99651.72
2022-12-08T20:28:14.588Z,99659.63
2022-12-08T20:30:42.152Z,99652.66
2022-12-08T20:33:09.981Z,99654.38
2022-12-08T20:35:36.306Z,99652.63
2022-12-08T20:38:02.598Z,99649.22
2022-12-08T20:40:28.982Z,99645.66
2022-12-08T20:42:55.310Z,99650.94
2022-12-08T20:45:21.651Z,99642.16
2022-12-08T20:47:48.047Z,99642.22
2022-12-08T20:50:14.481Z,99641.28
2022-12-08T20:52:41.005Z,99636.78
2022-12-08T20:55:07.980Z,99635.06
2022-12-08T20:57:34.468Z,99645.50
2022-12-08T21:00:00.816Z,99645.56
2022-12-08T21:02:27.698Z,99646.41
2022-12-08T21:04:54.499Z,99642.00
2022-12-08T21:07:21.298Z,99642.81
2022-12-08T21:09:47.908Z,99642.91
2022-12-08T21:12:14.509Z,99646.44
2022-12-08T21:14:40.976Z,99639.66
2022-12-08T21:17:08.056Z,99638.72
2022-12-08T21:19:34.735Z,99648.22
2022-12-08T21:22:01.260Z,99648.97
2022-12-08T21:24:33.519Z,99650.66
2022-12-08T21:27:00.573Z,99660.16
2022-12-08T21:29:27.105Z,99656.66
2022-12-08T21:31:55.583Z,99652.06
2022-12-08T21:34:22.162Z,99651.22
2022-12-08T21:36:48.473Z,99649.47
2022-12-08T21:39:14.936Z,99652.06
2022-12-08T21:41:59.867Z,99656.50
2022-12-08T21:44:26.183Z,99649.75
2022-12-08T21:46:52.633Z,99661.06
2022-12-08T21:49:19.224Z,99646.22
2022-12-08T21:51:45.648Z,99657.44
2022-12-08T21:54:18.271Z,99646.06
2022-12-08T21:56:47.265Z,99644.44
2022-12-08T21:59:13.824Z,99654.19
2022-12-08T22:01:40.388Z,99652.56
2022-12-08T22:04:06.972Z,99648.22
2022-12-08T22:06:33.383Z,99650.19
2022-12-08T22:08:59.849Z,99652.56
2022-12-08T22:11:26.387Z,99660.34
2022-12-08T22:13:52.753Z,99664.50
2022-12-08T22:16:19.387Z,99659.19
2022-12-08T22:18:46.073Z,99661.72
2022-12-08T22:21:15.507Z,99661.72
2022-12-08T22:23:42.240Z,99662.19
2022-12-08T22:26:09.447Z,99661.38
2022-12-08T22:28:41.108Z,99666.66
2022-12-08T22:31:10.061Z,99662.19
2022-12-08T22:33:37.056Z,99648.16
2022-12-08T22:36:10.234Z,99657.41
2022-12-08T22:38:37.396Z,99655.72
2022-12-08T22:41:05.162Z,99656.63
2022-12-08T22:43:31.524Z,99657.19
2022-12-08T22:45:58.043Z,99636.53
2022-12-08T22:48:25.100Z,99646.44
2022-12-08T22:50:57.816Z,99638.31
2022-12-08T22:53:24.265Z,99640.16
2022-12-08T22:55:50.540Z,99637.38
2022-12-08T22:58:17.096Z,99631.47
2022-12-08T23:00:43.679Z,99640.88
2022-12-08T23:03:10.039Z,99634.63
2022-12-08T23:05:38.458Z,99632.69
2022-12-08T23:08:07.701Z,99630.03
2022-12-08T23:10:34.960Z,99616.75
2022-12-08T23:13:03.909Z,99631.06
2022-12-08T23:15:30.753Z,99637.47
2022-12-08T23:17:57.491Z,99629.53
2022-12-08T23:20:24.083Z,99622.53
2022-12-08T23:22:50.628Z,99632.31
2022-12-08T23:25:18.500Z,99636.78
2022-12-08T23:27:45.582Z,99626.94
2022-12-08T23:30:12.675Z,99625.44
2022-12-08T23:32:39.257Z,99619.16
2022-12-08T23:35:06.568Z,99617.28
2022-12-08T23:37:33.044Z,99605.72
2022-12-08T23:39:59.480Z,99611.16
2022-12-08T23:42:25.815Z,99618.41
2022-12-08T23:44:52.431Z,99623.88
2022-12-08T23:47:18.834Z,99618.16
2022-12-08T23:49:45.679Z,99611.00
2022-12-08T23:52:13.788Z,99611.75
2022-12-08T23:54:40.489Z,99598.41
2022-12-08T23:57:07.338Z,99601.66
2022-12-08T23:59:33.814Z,99601.84
